sensor_id;sensor_type;location;lat;lon;timestamp;pressure;altitude;pressure_sealevel;temperature;humidity
5913;BME280;2982;42.684;23.356;2023-08-30T00:00:32;93301.25;;;15.67;100.00
5913;BME280;2982;42.684;23.356;2023-08-30T00:03:00;93548.78;;;16.97;100.00
5913;BME280;2982;42.684;23.356;2023-08-30T00:05:26;93259.72;;;15.12;100.00
5913;BME280;2982;42.684;23.356;2023-08-30T00:07:59;93578.25;;;16.93;100.00
5913;BME280;2982;42.684;23.356;2023-08-30T00:10:24;93425.81;;;16.10;100.00
5913;BME280;2982;42.684;23.356;2023-08-30T00:12:49;93530.94;;;16.44;100.00
5913;BME280;2982;42.684;23.356;2023-08-30T00:15:20;93860.47;;;18.57;100.00
5913;BME280;2982;42.684;23.356;2023-08-30T00:17:45;93251.72;;;14.71;100.00
5913;BME280;2982;42.684;23.356;2023-08-30T00:20:11;93180.44;;;14.33;100.00
5913;BME280;2982;42.684;23.356;2023-08-30T00:22:36;93272.75;;;15.01;100.00
5913;BME280;2982;42.684;23.356;2023-08-30T00:25:04;93322.91;;;15.37;100.00
5913;BME280;2982;42.684;23.356;2023-08-30T00:27:30;93115.97;;;14.13;100.00
5913;BME280;2982;42.684;23.356;2023-08-30T00:29:58;93251.78;;;14.62;100.00
5913;BME280;2982;42.684;23.356;2023-08-30T00:32:23;93341.53;;;15.12;100.00
5913;BME280;2982;42.684;23.356;2023-08-30T00:34:51;93203.03;;;14.28;100.00
5913;BME280;2982;42.684;23.356;2023-08-30T00:37:20;93337.31;;;15.03;100.00
5913;BME280;2982;42.684;23.356;2023-08-30T00:39:45;93460.53;;;15.86;100.00
5913;BME280;2982;42.684;23.356;2023-08-30T00:42:15;93215.53;;;14.31;100.00
5913;BME280;2982;42.684;23.356;2023-08-30T00:44:41;93363.25;;;15.08;100.00
5913;BME280;2982;42.684;23.356;2023-08-30T00:47:06;93137.09;;;13.60;100.00
5913;BME280;2982;42.684;23.356;2023-08-30T00:49:32;94035.06;;;19.12;100.00
5913;BME280;2982;42.684;23.356;2023-08-30T00:52:03;93227.09;;;14.07;100.00
5913;BME280;2982;42.684;23.356;2023-08-30T00:54:33;93302.94;;;14.52;100.00
5913;BME280;2982;42.684;23.356;2023-08-30T00:57:00;93225.44;;;14.16;100.00
5913;BME280;2982;42.684;23.356;2023-08-30T00:59:26;93505.81;;;15.68;100.00
5913;BME280;2982;42.684;23.356;2023-08-30T01:01:51;93270.88;;;14.13;100.00
5913;BME280;2982;42.684;23.356;2023-08-30T01:04:17;93259.88;;;14.12;100.00
5913;BME280;2982;42.684;23.356;2023-08-30T01:06:42;93305.88;;;14.30;100.00
5913;BME280;2982;42.684;23.356;2023-08-30T01:09:08;93341.84;;;14.46;100.00
5913;BME280;2982;42.684;23.356;2023-08-30T01:11:41;93932.56;;;17.96;100.00
5913;BME280;2982;42.684;23.356;2023-08-30T01:14:13;94068.75;;;19.01;100.00
5913;BME280;2982;42.684;23.356;2023-08-30T01:16:40;93293.16;;;14.20;100.00
5913;BME280;2982;42.684;23.356;2023-08-30T01:25:00;93280.63;;;14.27;100.00
5913;BME280;2982;42.684;23.356;2023-08-30T01:27:34;93542.03;;;15.91;100.00
5913;BME280;2982;42.684;23.356;2023-08-30T01:30:01;93316.47;;;14.62;100.00
5913;BME280;2982;42.684;23.356;2023-08-30T01:32:28;93322.25;;;14.64;100.00
5913;BME280;2982;42.684;23.356;2023-08-30T01:34:54;93874.94;;;17.98;100.00
5913;BME280;2982;42.684;23.356;2023-08-30T01:37:21;93286.69;;;14.71;100.00
5913;BME280;2982;42.684;23.356;2023-08-30T01:39:47;93231.34;;;14.44;100.00
5913;BME280;2982;42.684;23.356;2023-08-30T01:42:13;93299.69;;;14.60;100.00
5913;BME280;2982;42.684;23.356;2023-08-30T01:44:40;93467.31;;;15.52;100.00
5913;BME280;2982;42.684;23.356;2023-08-30T01:47:10;93270.53;;;14.25;100.00
5913;BME280;2982;42.684;23.356;2023-08-30T01:49:36;93190.28;;;13.83;100.00
5913;BME280;2982;42.684;23.356;2023-08-30T01:52:05;93758.19;;;17.24;100.00
5913;BME280;2982;42.684;23.356;2023-08-30T01:54:31;93252.09;;;14.31;100.00
5913;BME280;2982;42.684;23.356;2023-08-30T01:56:57;93265.06;;;14.20;100.00
5913;BME280;2982;42.684;23.356;2023-08-30T01:59:26;93896.34;;;18.33;100.00
5913;BME280;2982;42.684;23.356;2023-08-30T02:01:52;93365.41;;;14.85;100.00
5913;BME280;2982;42.684;23.356;2023-08-30T02:04:17;93282.75;;;14.76;100.00
5913;BME280;2982;42.684;23.356;2023-08-30T02:06:50;93596.22;;;16.57;100.00
5913;BME280;2982;42.684;23.356;2023-08-30T02:09:27;93275.66;;;14.52;100.00
5913;BME280;2982;42.684;23.356;2023-08-30T02:11:55;93309.13;;;14.77;100.00
5913;BME280;2982;42.684;23.356;2023-08-30T02:14:24;93325.69;;;14.90;100.00
5913;BME280;2982;42.684;23.356;2023-08-30T02:16:52;93889.19;;;18.19;100.00
5913;BME280;2982;42.684;23.356;2023-08-30T02:19:18;93276.59;;;14.51;100.00
5913;BME280;2982;42.684;23.356;2023-08-30T02:21:43;93257.47;;;14.28;100.00
5913;BME280;2982;42.684;23.356;2023-08-30T02:24:11;93249.16;;;14.36;100.00
5913;BME280;2982;42.684;23.356;2023-08-30T02:26:36;93237.41;;;14.33;100.00
5913;BME280;2982;42.684;23.356;2023-08-30T02:29:02;93306.91;;;14.64;100.00
5913;BME280;2982;42.684;23.356;2023-08-30T02:31:27;93272.50;;;14.41;100.00
5913;BME280;2982;42.684;23.356;2023-08-30T02:33:52;93234.94;;;14.24;100.00
5913;BME280;2982;42.684;23.356;2023-08-30T02:36:18;93860.41;;;17.89;100.00
5913;BME280;2982;42.684;23.356;2023-08-30T02:38:43;93195.25;;;13.57;100.00
5913;BME280;2982;42.684;23.356;2023-08-30T02:41:09;93372.16;;;14.59;100.00
5913;BME280;2982;42.684;23.356;2023-08-30T02:43:34;93473.50;;;15.05;100.00
5913;BME280;2982;42.684;23.356;2023-08-30T02:45:59;93358.69;;;14.39;100.00
5913;BME280;2982;42.684;23.356;2023-08-30T02:48:25;93192.53;;;13.58;100.00
5913;BME280;2982;42.684;23.356;2023-08-30T02:50:50;93289.81;;;14.10;100.00
5913;BME280;2982;42.684;23.356;2023-08-30T02:53:15;93202.41;;;13.44;100.00
5913;BME280;2982;42.684;23.356;2023-08-30T02:55:41;93186.78;;;13.19;100.00
5913;BME280;2982;42.684;23.356;2023-08-30T02:58:06;93446.69;;;14.81;100.00
5913;BME280;2982;42.684;23.356;2023-08-30T03:00:31;93149.81;;;12.96;100.00
5913;BME280;2982;42.684;23.356;2023-08-30T03:02:57;93162.13;;;13.01;100.00
5913;BME280;2982;42.684;23.356;2023-08-30T03:05:22;93451.59;;;14.65;100.00
5913;BME280;2982;42.684;23.356;2023-08-30T03:07:47;93262.03;;;13.43;100.00
5913;BME280;2982;42.684;23.356;2023-08-30T03:10:13;93557.38;;;15.56;100.00
5913;BME280;2982;42.684;23.356;2023-08-30T03:12:41;93245.53;;;13.28;100.00
5913;BME280;2982;42.684;23.356;2023-08-30T03:15:06;93288.00;;;13.65;100.00
5913;BME280;2982;42.684;23.356;2023-08-30T03:17:34;93197.66;;;13.12;100.00
5913;BME280;2982;42.684;23.356;2023-08-30T03:19:59;93348.50;;;13.83;100.00
5913;BME280;2982;42.684;23.356;2023-08-30T03:22:25;93297.25;;;13.66;100.00
5913;BME280;2982;42.684;23.356;2023-08-30T03:24:50;93354.53;;;13.82;100.00
5913;BME280;2982;42.684;23.356;2023-08-30T03:27:16;93402.03;;;14.11;100.00
5913;BME280;2982;42.684;23.356;2023-08-30T03:29:42;93260.56;;;13.31;100.00
5913;BME280;2982;42.684;23.356;2023-08-30T03:32:27;94045.44;;;18.15;100.00
5913;BME280;2982;42.684;23.356;2023-08-30T03:35:15;94029.81;;;18.09;100.00
5913;BME280;2982;42.684;23.356;2023-08-30T03:41:23;93941.38;;;17.76;100.00
5913;BME280;2982;42.684;23.356;2023-08-30T03:44:18;93432.59;;;14.50;100.00
5913;BME280;2982;42.684;23.356;2023-08-30T04:02:52;93230.13;;;13.19;100.00
5913;BME280;2982;42.684;23.356;2023-08-30T04:05:21;93974.47;;;18.14;100.00
5913;BME280;2982;42.684;23.356;2023-08-30T04:11:40;93439.19;;;14.70;100.00
5913;BME280;2982;42.684;23.356;2023-08-30T04:14:10;93307.13;;;13.89;100.00
5913;BME280;2982;42.684;23.356;2023-08-30T04:16:37;93230.84;;;13.49;100.00
5913;BME280;2982;42.684;23.356;2023-08-30T04:19:24;93183.00;;;13.33;100.00
5913;BME280;2982;42.684;23.356;2023-08-30T04:22:20;93303.50;;;14.19;100.00
5913;BME280;2982;42.684;23.356;2023-08-30T04:25:16;93342.00;;;14.62;100.00
5913;BME280;2982;42.684;23.356;2023-08-30T04:27:44;93400.69;;;15.44;100.00
5913;BME280;2982;42.684;23.356;2023-08-30T04:30:10;94052.41;;;19.86;100.00
5913;BME280;2982;42.684;23.356;2023-08-30T04:32:37;93603.56;;;17.55;100.00
5913;BME280;2982;42.684;23.356;2023-08-30T04:35:03;93468.66;;;16.69;100.00
5913;BME280;2982;42.684;23.356;2023-08-30T04:37:30;93426.88;;;16.85;100.00
5913;BME280;2982;42.684;23.356;2023-08-30T04:39:58;93649.88;;;18.30;100.00
5913;BME280;2982;42.684;23.356;2023-08-30T04:42:25;94065.94;;;21.09;100.00
5913;BME280;2982;42.684;23.356;2023-08-30T04:44:53;93324.19;;;16.52;100.00
5913;BME280;2982;42.684;23.356;2023-08-30T04:47:19;93421.81;;;17.01;100.00
5913;BME280;2982;42.684;23.356;2023-08-30T04:49:50;93830.59;;;19.30;100.00
5913;BME280;2982;42.684;23.356;2023-08-30T04:52:15;94002.63;;;20.74;100.00
5913;BME280;2982;42.684;23.356;2023-08-30T04:54:41;93430.31;;;16.93;100.00
5913;BME280;2982;42.684;23.356;2023-08-30T04:57:06;94071.97;;;20.93;100.00
5913;BME280;2982;42.684;23.356;2023-08-30T04:59:32;93765.09;;;18.84;100.00
5913;BME280;2982;42.684;23.356;2023-08-30T05:01:57;93464.59;;;16.33;100.00
5913;BME280;2982;42.684;23.356;2023-08-30T05:04:24;94053.09;;;20.28;100.00
5913;BME280;2982;42.684;23.356;2023-08-30T05:06:49;93787.84;;;18.63;100.00
5913;BME280;2982;42.684;23.356;2023-08-30T05:09:38;93565.97;;;16.79;100.00
5913;BME280;2982;42.684;23.356;2023-08-30T05:12:26;94057.59;;;20.26;100.00
5913;BME280;2982;42.684;23.356;2023-08-30T05:15:13;93883.19;;;19.20;100.00
5913;BME280;2982;42.684;23.356;2023-08-30T05:17:39;93919.44;;;19.43;100.00
5913;BME280;2982;42.684;23.356;2023-08-30T05:20:05;93331.94;;;15.49;100.00
5913;BME280;2982;42.684;23.356;2023-08-30T05:22:30;93825.44;;;19.22;100.00
5913;BME280;2982;42.684;23.356;2023-08-30T05:24:56;93981.03;;;20.75;100.00
5913;BME280;2982;42.684;23.356;2023-08-30T05:27:22;93424.22;;;17.60;100.00
5913;BME280;2982;42.684;23.356;2023-08-30T05:29:47;93792.28;;;20.78;100.00
5913;BME280;2982;42.684;23.356;2023-08-30T05:32:13;94108.19;;;23.09;100.00
5913;BME280;2982;42.684;23.356;2023-08-30T05:34:38;93465.72;;;18.77;100.00
5913;BME280;2982;42.684;23.356;2023-08-30T05:37:29;93606.75;;;19.84;100.00
5913;BME280;2982;42.684;23.356;2023-08-30T05:40:04;94176.84;;;23.43;100.00
5913;BME280;2982;42.684;23.356;2023-08-30T05:42:30;94017.72;;;23.22;100.00
5913;BME280;2982;42.684;23.356;2023-08-30T05:44:55;93916.56;;;23.31;100.00
5913;BME280;2982;42.684;23.356;2023-08-30T05:47:21;93546.84;;;21.40;100.00
5913;BME280;2982;42.684;23.356;2023-08-30T05:49:49;94114.78;;;25.49;100.00
5913;BME280;2982;42.684;23.356;2023-08-30T05:52:18;94161.13;;;26.01;100.00
5913;BME280;2982;42.684;23.356;2023-08-30T05:54:43;93428.38;;;21.73;100.00
5913;BME280;2982;42.684;23.356;2023-08-30T05:57:09;93934.47;;;25.63;100.00
5913;BME280;2982;42.684;23.356;2023-08-30T05:59:35;93520.78;;;22.70;100.00
5913;BME280;2982;42.684;23.356;2023-08-30T06:02:01;93551.50;;;22.59;100.00
5913;BME280;2982;42.684;23.356;2023-08-30T06:04:27;93526.91;;;22.91;99.34
5913;BME280;2982;42.684;23.356;2023-08-30T06:06:52;93468.69;;;22.59;98.62
5913;BME280;2982;42.684;23.356;2023-08-30T06:09:17;93744.38;;;24.44;98.66
5913;BME280;2982;42.684;23.356;2023-08-30T06:11:45;93988.19;;;26.10;97.39
5913;BME280;2982;42.684;23.356;2023-08-30T06:14:10;93660.66;;;23.95;96.74
5913;BME280;2982;42.684;23.356;2023-08-30T06:16:36;93508.44;;;23.00;98.85
5913;BME280;2982;42.684;23.356;2023-08-30T06:19:03;93519.72;;;22.93;96.69
5913;BME280;2982;42.684;23.356;2023-08-30T06:21:32;93612.97;;;23.89;98.61
5913;BME280;2982;42.684;23.356;2023-08-30T06:24:00;93917.34;;;26.27;97.60
5913;BME280;2982;42.684;23.356;2023-08-30T06:26:28;93927.34;;;26.04;95.38
5913;BME280;2982;42.684;23.356;2023-08-30T06:28:54;93713.72;;;24.20;98.61
5913;BME280;2982;42.684;23.356;2023-08-30T06:31:19;93477.75;;;22.20;100.00
5913;BME280;2982;42.684;23.356;2023-08-30T06:33:45;93636.22;;;23.14;100.00
5913;BME280;2982;42.684;23.356;2023-08-30T06:36:10;93503.22;;;21.16;100.00
5913;BME280;2982;42.684;23.356;2023-08-30T06:38:35;93662.50;;;21.97;100.00
5913;BME280;2982;42.684;23.356;2023-08-30T06:41:01;93514.31;;;20.87;100.00
5913;BME280;2982;42.684;23.356;2023-08-30T06:43:36;93531.25;;;21.33;100.00
5913;BME280;2982;42.684;23.356;2023-08-30T06:46:02;94133.09;;;25.06;100.00
5913;BME280;2982;42.684;23.356;2023-08-30T06:48:28;93559.41;;;21.14;100.00
5913;BME280;2982;42.684;23.356;2023-08-30T06:50:57;94097.16;;;25.10;100.00
5913;BME280;2982;42.684;23.356;2023-08-30T06:53:22;93610.06;;;21.73;100.00
5913;BME280;2982;42.684;23.356;2023-08-30T06:55:57;93449.53;;;20.82;100.00
5913;BME280;2982;42.684;23.356;2023-08-30T06:58:25;93470.56;;;21.23;100.00
5913;BME280;2982;42.684;23.356;2023-08-30T07:00:51;94180.34;;;25.16;100.00
5913;BME280;2982;42.684;23.356;2023-08-30T07:03:17;93452.03;;;20.60;100.00
5913;BME280;2982;42.684;23.356;2023-08-30T07:05:45;93903.81;;;23.65;100.00
5913;BME280;2982;42.684;23.356;2023-08-30T07:08:11;94155.88;;;25.04;100.00
5913;BME280;2982;42.684;23.356;2023-08-30T07:10:36;94164.25;;;25.27;100.00
5913;BME280;2982;42.684;23.356;2023-08-30T07:13:02;93753.38;;;23.16;100.00
5913;BME280;2982;42.684;23.356;2023-08-30T07:15:27;93593.28;;;21.99;100.00
5913;BME280;2982;42.684;23.356;2023-08-30T07:17:53;93711.41;;;22.99;100.00
5913;BME280;2982;42.684;23.356;2023-08-30T07:20:19;93436.03;;;21.45;100.00
5913;BME280;2982;42.684;23.356;2023-08-30T07:22:44;93731.63;;;23.10;100.00
5913;BME280;2982;42.684;23.356;2023-08-30T07:25:10;94166.16;;;25.68;100.00
5913;BME280;2982;42.684;23.356;2023-08-30T07:27:36;93801.63;;;23.17;100.00
5913;BME280;2982;42.684;23.356;2023-08-30T07:30:02;94108.34;;;25.72;100.00
5913;BME280;2982;42.684;23.356;2023-08-30T07:32:27;94133.00;;;25.76;100.00
5913;BME280;2982;42.684;23.356;2023-08-30T07:34:54;93635.56;;;22.63;100.00
5913;BME280;2982;42.684;23.356;2023-08-30T07:37:20;94061.91;;;25.35;100.00
5913;BME280;2982;42.684;23.356;2023-08-30T07:39:46;93478.91;;;22.18;100.00
5913;BME280;2982;42.684;23.356;2023-08-30T07:42:13;93759.78;;;23.62;100.00
5913;BME280;2982;42.684;23.356;2023-08-30T07:44:39;93578.75;;;22.33;100.00
5913;BME280;2982;42.684;23.356;2023-08-30T07:47:04;94040.91;;;25.64;100.00
5913;BME280;2982;42.684;23.356;2023-08-30T07:49:30;93618.59;;;23.03;100.00
5913;BME280;2982;42.684;23.356;2023-08-30T07:51:55;94107.72;;;26.11;100.00
5913;BME280;2982;42.684;23.356;2023-08-30T07:54:25;93492.72;;;21.89;100.00
5913;BME280;2982;42.684;23.356;2023-08-30T07:56:51;93830.91;;;23.75;100.00
5913;BME280;2982;42.684;23.356;2023-08-30T07:59:16;93450.03;;;21.36;100.00
5913;BME280;2982;42.684;23.356;2023-08-30T08:01:42;93456.81;;;21.73;100.00
5913;BME280;2982;42.684;23.356;2023-08-30T08:04:08;93549.34;;;21.99;100.00
5913;BME280;2982;42.684;23.356;2023-08-30T08:06:34;93666.56;;;22.77;100.00
5913;BME280;2982;42.684;23.356;2023-08-30T08:09:06;93514.75;;;21.85;100.00
5913;BME280;2982;42.684;23.356;2023-08-30T08:11:32;93450.63;;;21.52;100.00
5913;BME280;2982;42.684;23.356;2023-08-30T08:13:57;93533.41;;;22.37;100.00
5913;BME280;2982;42.684;23.356;2023-08-30T08:16:23;94000.06;;;25.17;100.00
5913;BME280;2982;42.684;23.356;2023-08-30T08:18:48;93498.44;;;22.20;98.99
5913;BME280;2982;42.684;23.356;2023-08-30T08:21:14;94189.00;;;26.13;100.00
5913;BME280;2982;42.684;23.356;2023-08-30T08:23:39;93548.22;;;22.44;100.00
5913;BME280;2982;42.684;23.356;2023-08-30T08:26:05;93959.28;;;25.18;97.76
5913;BME280;2982;42.684;23.356;2023-08-30T08:28:38;93857.00;;;24.22;98.96
5913;BME280;2982;42.684;23.356;2023-08-30T08:31:03;94186.34;;;26.35;94.81
5913;BME280;2982;42.684;23.356;2023-08-30T08:33:32;93613.09;;;22.85;93.84
5913;BME280;2982;42.684;23.356;2023-08-30T08:35:57;94127.78;;;26.17;96.08
5913;BME280;2982;42.684;23.356;2023-08-30T08:38:23;94123.47;;;25.97;97.11
5913;BME280;2982;42.684;23.356;2023-08-30T08:40:48;94168.47;;;26.25;99.47
5913;BME280;2982;42.684;23.356;2023-08-30T08:43:16;94164.59;;;26.14;92.40
5913;BME280;2982;42.684;23.356;2023-08-30T08:45:44;93505.81;;;22.45;90.15
5913;BME280;2982;42.684;23.356;2023-08-30T08:48:12;93754.66;;;23.97;90.49
5913;BME280;2982;42.684;23.356;2023-08-30T08:50:38;93499.94;;;22.29;88.30
5913;BME280;2982;42.684;23.356;2023-08-30T08:53:04;93607.63;;;23.01;91.32
5913;BME280;2982;42.684;23.356;2023-08-30T08:55:30;93542.16;;;22.58;90.59
5913;BME280;2982;42.684;23.356;2023-08-30T08:57:57;93555.28;;;22.56;89.91
5913;BME280;2982;42.684;23.356;2023-08-30T09:00:24;93409.66;;;21.92;89.96
5913;BME280;2982;42.684;23.356;2023-08-30T09:02:50;93571.59;;;22.78;91.35
5913;BME280;2982;42.684;23.356;2023-08-30T09:05:18;93529.41;;;22.56;88.55
5913;BME280;2982;42.684;23.356;2023-08-30T09:07:45;93512.91;;;22.36;89.94
5913;BME280;2982;42.684;23.356;2023-08-30T09:10:14;93609.78;;;22.55;91.88
5913;BME280;2982;42.684;23.356;2023-08-30T09:12:41;93801.66;;;24.43;93.05
5913;BME280;2982;42.684;23.356;2023-08-30T09:15:07;93765.41;;;24.63;90.45
5913;BME280;2982;42.684;23.356;2023-08-30T09:17:39;93465.28;;;22.52;90.35
5913;BME280;2982;42.684;23.356;2023-08-30T09:20:10;93544.22;;;23.24;90.47
5913;BME280;2982;42.684;23.356;2023-08-30T09:22:39;93510.56;;;22.90;90.84
5913;BME280;2982;42.684;23.356;2023-08-30T09:25:26;94111.53;;;27.02;90.37
5913;BME280;2982;42.684;23.356;2023-08-30T09:27:57;93428.16;;;22.10;91.14
5913;BME280;2982;42.684;23.356;2023-08-30T09:30:22;93542.44;;;22.91;92.47
5913;BME280;2982;42.684;23.356;2023-08-30T09:32:48;93929.06;;;25.58;91.21
5913;BME280;2982;42.684;23.356;2023-08-30T09:35:13;94139.63;;;27.27;91.66
5913;BME280;2982;42.684;23.356;2023-08-30T09:37:39;93516.75;;;23.30;89.93
5913;BME280;2982;42.684;23.356;2023-08-30T09:40:06;93783.59;;;25.50;89.40
5913;BME280;2982;42.684;23.356;2023-08-30T09:42:32;93494.69;;;23.41;87.53
5913;BME280;2982;42.684;23.356;2023-08-30T09:44:57;93526.78;;;23.40;85.78
5913;BME280;2982;42.684;23.356;2023-08-30T09:47:26;94102.28;;;27.39;87.83
5913;BME280;2982;42.684;23.356;2023-08-30T09:49:54;93499.72;;;23.49;87.64
5913;BME280;2982;42.684;23.356;2023-08-30T09:52:23;93636.56;;;24.48;87.23
5913;BME280;2982;42.684;23.356;2023-08-30T09:54:49;93471.25;;;23.55;87.72
5913;BME280;2982;42.684;23.356;2023-08-30T09:57:16;94033.75;;;26.73;87.25
5913;BME280;2982;42.684;23.356;2023-08-30T09:59:50;93516.81;;;23.91;87.59
5913;BME280;2982;42.684;23.356;2023-08-30T10:02:16;93762.84;;;25.63;87.75
5913;BME280;2982;42.684;23.356;2023-08-30T10:04:43;93545.88;;;24.40;86.42
5913;BME280;2982;42.684;23.356;2023-08-30T10:07:10;93506.94;;;24.27;87.99
5913;BME280;2982;42.684;23.356;2023-08-30T10:09:56;94075.59;;;28.21;85.43
5913;BME280;2982;42.684;23.356;2023-08-30T10:12:23;94027.13;;;27.87;85.08
5913;BME280;2982;42.684;23.356;2023-08-30T10:14:49;93530.91;;;24.69;86.51
5913;BME280;2982;42.684;23.356;2023-08-30T10:17:18;94073.59;;;28.10;84.41
5913;BME280;2982;42.684;23.356;2023-08-30T10:19:43;93532.31;;;24.78;86.25
5913;BME280;2982;42.684;23.356;2023-08-30T10:22:13;93890.28;;;26.68;84.60
5913;BME280;2982;42.684;23.356;2023-08-30T10:25:04;93421.81;;;23.50;86.76
5913;BME280;2982;42.684;23.356;2023-08-30T10:27:36;93452.56;;;23.25;87.58
5913;BME280;2982;42.684;23.356;2023-08-30T10:30:21;93442.28;;;22.98;87.53
5913;BME280;2982;42.684;23.356;2023-08-30T10:32:47;93500.59;;;23.62;87.11
5913;BME280;2982;42.684;23.356;2023-08-30T10:35:18;93481.53;;;24.03;87.44
5913;BME280;2982;42.684;23.356;2023-08-30T10:38:04;93695.59;;;25.07;86.42
5913;BME280;2982;42.684;23.356;2023-08-30T10:40:30;93631.41;;;24.68;88.44
5913;BME280;2982;42.684;23.356;2023-08-30T10:43:03;93768.25;;;25.61;86.98
5913;BME280;2982;42.684;23.356;2023-08-30T10:45:28;93944.78;;;26.96;87.49
5913;BME280;2982;42.684;23.356;2023-08-30T10:47:56;94059.50;;;27.73;91.20
5913;BME280;2982;42.684;23.356;2023-08-30T10:50:31;93893.94;;;26.41;89.49
5913;BME280;2982;42.684;23.356;2023-08-30T10:52:58;93623.63;;;25.40;84.48
5913;BME280;2982;42.684;23.356;2023-08-30T10:55:24;93717.44;;;25.65;83.61
5913;BME280;2982;42.684;23.356;2023-08-30T10:58:03;93514.91;;;24.19;85.90
5913;BME280;2982;42.684;23.356;2023-08-30T11:00:30;93542.69;;;24.25;85.09
5913;BME280;2982;42.684;23.356;2023-08-30T11:02:56;93584.63;;;24.48;86.64
5913;BME280;2982;42.684;23.356;2023-08-30T11:05:23;93721.22;;;25.23;88.28
5913;BME280;2982;42.684;23.356;2023-08-30T11:07:49;93679.22;;;25.20;87.09
5913;BME280;2982;42.684;23.356;2023-08-30T11:10:15;93489.50;;;23.95;85.99
5913;BME280;2982;42.684;23.356;2023-08-30T11:12:44;94049.28;;;28.54;85.71
5913;BME280;2982;42.684;23.356;2023-08-30T11:15:11;93601.75;;;25.94;82.06
5913;BME280;2982;42.684;23.356;2023-08-30T11:17:37;93441.41;;;25.04;80.94
5913;BME280;2982;42.684;23.356;2023-08-30T11:20:09;94095.47;;;28.92;80.89
5913;BME280;2982;42.684;23.356;2023-08-30T11:22:46;93522.72;;;25.11;80.68
5913;BME280;2982;42.684;23.356;2023-08-30T11:25:15;93493.94;;;25.13;79.63
5913;BME280;2982;42.684;23.356;2023-08-30T11:27:43;93434.00;;;25.01;80.21
5913;BME280;2982;42.684;23.356;2023-08-30T11:30:10;94035.03;;;29.24;78.70
5913;BME280;2982;42.684;23.356;2023-08-30T11:32:37;93466.06;;;25.46;78.13
5913;BME280;2982;42.684;23.356;2023-08-30T11:35:03;93453.13;;;25.26;77.44
5913;BME280;2982;42.684;23.356;2023-08-30T11:37:30;93664.66;;;27.30;76.25
5913;BME280;2982;42.684;23.356;2023-08-30T11:39:58;93581.50;;;26.72;79.04
5913;BME280;2982;42.684;23.356;2023-08-30T11:42:24;93470.97;;;26.37;73.44
5913;BME280;2982;42.684;23.356;2023-08-30T11:44:51;93806.47;;;28.59;73.93
5913;BME280;2982;42.684;23.356;2023-08-30T11:47:24;93732.50;;;27.79;72.75
5913;BME280;2982;42.684;23.356;2023-08-30T11:49:52;93597.75;;;27.24;74.70
5913;BME280;2982;42.684;23.356;2023-08-30T11:52:18;93521.09;;;26.57;72.08
5913;BME280;2982;42.684;23.356;2023-08-30T11:54:44;94064.31;;;29.94;72.69
5913;BME280;2982;42.684;23.356;2023-08-30T11:57:10;93497.47;;;26.58;73.45
5913;BME280;2982;42.684;23.356;2023-08-30T11:59:36;93872.63;;;28.96;72.96
5913;BME280;2982;42.684;23.356;2023-08-30T12:02:03;93394.66;;;25.86;69.38
5913;BME280;2982;42.684;23.356;2023-08-30T12:04:39;93391.94;;;26.00;67.70
5913;BME280;2982;42.684;23.356;2023-08-30T12:07:05;93870.50;;;29.05;68.14
5913;BME280;2982;42.684;23.356;2023-08-30T12:09:31;93512.69;;;26.86;69.51
5913;BME280;2982;42.684;23.356;2023-08-30T12:12:11;93957.16;;;29.63;70.02
5913;BME280;2982;42.684;23.356;2023-08-30T12:14:37;93656.25;;;27.77;68.87
5913;BME280;2982;42.684;23.356;2023-08-30T12:17:06;93421.53;;;26.05;69.32
5913;BME280;2982;42.684;23.356;2023-08-30T12:19:31;93393.22;;;25.91;70.30
5913;BME280;2982;42.684;23.356;2023-08-30T12:22:03;93783.66;;;28.84;69.87
5913;BME280;2982;42.684;23.356;2023-08-30T12:24:39;93349.69;;;26.04;66.85
5913;BME280;2982;42.684;23.356;2023-08-30T12:27:05;93450.53;;;26.90;64.34
5913;BME280;2982;42.684;23.356;2023-08-30T12:29:30;93479.44;;;27.25;63.61
5913;BME280;2982;42.684;23.356;2023-08-30T12:31:56;93399.81;;;27.10;64.46
5913;BME280;2982;42.684;23.356;2023-08-30T12:34:27;93332.53;;;26.64;61.90
5913;BME280;2982;42.684;23.356;2023-08-30T12:36:52;93962.38;;;31.34;60.32
5913;BME280;2982;42.684;23.356;2023-08-30T12:39:18;93399.00;;;27.88;56.94
5913;BME280;2982;42.684;23.356;2023-08-30T12:41:44;93366.94;;;27.57;46.99
5913;BME280;2982;42.684;23.356;2023-08-30T12:44:09;93843.88;;;30.62;48.02
5913;BME280;2982;42.684;23.356;2023-08-30T12:46:35;93440.06;;;27.51;48.71
5913;BME280;2982;42.684;23.356;2023-08-30T12:49:00;93320.31;;;26.65;57.22
5913;BME280;2982;42.684;23.356;2023-08-30T12:51:26;93977.56;;;30.97;58.35
5913;BME280;2982;42.684;23.356;2023-08-30T12:53:51;93341.78;;;27.45;51.08
5913;BME280;2982;42.684;23.356;2023-08-30T12:56:19;93446.09;;;28.11;49.92
5913;BME280;2982;42.684;23.356;2023-08-30T12:58:47;93401.97;;;28.21;50.96
5913;BME280;2982;42.684;23.356;2023-08-30T13:01:13;93381.88;;;28.33;50.23
5913;BME280;2982;42.684;23.356;2023-08-30T13:03:38;93677.59;;;29.48;51.75
5913;BME280;2982;42.684;23.356;2023-08-30T13:06:04;93197.34;;;26.63;52.69
5913;BME280;2982;42.684;23.356;2023-08-30T13:08:33;93271.72;;;26.41;54.64
5913;BME280;2982;42.684;23.356;2023-08-30T13:10:59;93328.25;;;27.25;54.87
5913;BME280;2982;42.684;23.356;2023-08-30T13:13:25;93929.69;;;30.78;49.69
5913;BME280;2982;42.684;23.356;2023-08-30T13:15:51;93330.16;;;26.99;49.99
5913;BME280;2982;42.684;23.356;2023-08-30T13:18:17;93323.19;;;27.41;51.24
5913;BME280;2982;42.684;23.356;2023-08-30T13:20:46;93600.47;;;29.62;48.27
5913;BME280;2982;42.684;23.356;2023-08-30T13:23:12;93413.91;;;28.52;48.38
5913;BME280;2982;42.684;23.356;2023-08-30T13:25:40;93513.13;;;29.40;41.97
5913;BME280;2982;42.684;23.356;2023-08-30T13:28:06;93594.28;;;30.03;37.75
5913;BME280;2982;42.684;23.356;2023-08-30T13:30:32;93888.13;;;31.90;43.19
5913;BME280;2982;42.684;23.356;2023-08-30T13:32:57;93937.72;;;32.48;42.54
5913;BME280;2982;42.684;23.356;2023-08-30T13:35:23;93359.31;;;28.09;42.46
5913;BME280;2982;42.684;23.356;2023-08-30T13:37:54;93410.38;;;28.46;37.58